Time;durP1;ratioP1;P1;durP2;ratioP2;P2;SDS_P1;SDS_P2;PMS_P1;PMS_P2;Temp;Humidity;BMP_temperature;BMP_pressure;BME280_temperature;BME280_humidity;BME280_pressure;Samples;Min_cycle;Max_cycle;Signal;HPM_P1;HPM_P2
2021/12/14 00:01:42;;;;;;;23.73;17.75;;;;;;;1.27;81.15;100770.13;1737892;82;21010;-70
2021/12/14 00:04:24;;;;;;;19.02;15.15;;;;;;;1.28;81.12;100771.36;1747603;80;21019;-71
2021/12/14 00:06:52;;;;;;;20.00;16.80;;;;;;;1.27;81.04;100772.72;1737730;82;21076;-71
2021/12/14 00:09:24;;;;;;;25.65;19.80;;;;;;;1.21;81.00;100775.07;1708019;82;22210;-70
2021/12/14 00:15:02;;;;;;;22.62;16.80;;;;;;;1.22;81.14;100769.41;1733206;80;20969;-70
2021/12/14 00:16:57;;;;;;;24.52;19.48;;;;;;;1.16;81.07;100775.70;1734683;82;21426;-72
2021/12/14 00:19:25;;;;;;;23.75;17.60;;;;;;;1.15;81.09;100772.21;1714288;81;21014;-70
2021/12/14 00:21:54;;;;;;;25.40;19.35;;;;;;;1.15;81.10;100777.87;1711193;82;21839;-70
2021/12/14 00:24:23;;;;;;;26.62;19.57;;;;;;;1.14;81.08;100777.47;1718116;82;21569;-71
2021/12/14 00:26:54;;;;;;;22.62;18.05;;;;;;;1.14;81.15;100775.72;1721723;82;21001;-70
2021/12/14 00:29:38;;;;;;;24.32;17.00;;;;;;;1.18;81.19;100778.23;1728565;81;21043;-70
2021/12/14 00:32:08;;;;;;;;;;;;;;;1.18;81.15;100781.69;1719079;82;21009;-70
2021/12/14 00:34:41;;;;;;;24.15;17.23;;;;;;;1.18;81.23;100782.14;1718056;82;21830;-70
2021/12/14 00:37:10;;;;;;;22.40;17.02;;;;;;;1.19;81.26;100782.54;1717720;82;21077;-69
2021/12/14 00:39:38;;;;;;;23.15;17.30;;;;;;;1.19;81.30;100779.48;1725170;82;21041;-70
2021/12/14 00:42:04;;;;;;;22.40;17.37;;;;;;;1.21;81.29;100782.03;1730695;81;20992;-70
2021/12/14 00:44:33;;;;;;;22.22;18.27;;;;;;;1.19;81.26;100778.63;1731136;81;21045;-69
2021/12/14 00:47:00;;;;;;;19.40;16.23;;;;;;;1.19;81.29;100778.63;1724884;82;22511;-70
2021/12/14 00:49:27;;;;;;;21.87;17.48;;;;;;;1.20;81.30;100781.18;1722544;82;20992;-70
2021/12/14 00:51:56;;;;;;;23.83;17.85;;;;;;;1.14;81.22;100780.92;1701706;83;20981;-69
2021/12/14 00:54:23;;;;;;;20.37;15.88;;;;;;;1.13;81.24;100779.23;1723984;83;20980;-70
2021/12/14 00:56:49;;;;;;;19.17;14.38;;;;;;;1.13;81.28;100781.83;1725189;83;21427;-70
2021/12/14 00:59:18;;;;;;;20.25;15.03;;;;;;;1.10;81.19;100776.73;1717780;83;22828;-69
2021/12/14 01:01:55;;;;;;;21.45;14.90;;;;;;;1.10;81.25;100772.84;1716992;81;21057;-70
2021/12/14 01:04:32;;;;;;;20.37;16.42;;;;;;;1.11;81.26;100768.48;1717826;82;20956;-69
2021/12/14 01:07:00;;;;;;;22.17;17.70;;;;;;;1.12;81.27;100772.33;1717179;83;21058;-69
2021/12/14 01:09:31;;;;;;;24.50;18.92;;;;;;;1.15;81.28;100766.16;1719128;82;20953;-70
2021/12/14 01:12:04;;;;;;;23.52;18.23;;;;;;;1.15;81.30;100763.56;1718263;81;21833;-70
2021/12/14 01:14:42;;;;;;;23.52;18.70;;;;;;;1.13;81.20;100761.47;1729524;82;20961;-70
2021/12/14 01:17:25;;;;;;;27.37;21.35;;;;;;;1.07;81.19;100761.25;1716801;83;20996;-70
2021/12/14 01:19:52;;;;;;;25.77;21.27;;;;;;;1.04;81.23;100763.94;1716596;82;21422;-69
2021/12/14 01:22:37;;;;;;;25.72;20.43;;;;;;;1.06;81.24;100763.88;1689636;83;21052;-70
2021/12/14 01:27:42;;;;;;;27.85;22.35;;;;;;;1.06;81.28;100753.47;1709065;82;21442;-71
2021/12/14 01:30:18;;;;;;;24.55;20.72;;;;;;;1.05;81.29;100752.63;1716260;81;29023;-71
2021/12/14 01:32:47;;;;;;;24.72;20.05;;;;;;;1.05;81.24;100756.97;1721969;82;21037;-71
2021/12/14 01:35:16;;;;;;;23.45;18.27;;;;;;;1.04;81.27;100754.83;1736456;82;21008;-71
2021/12/14 01:37:58;;;;;;;21.30;17.30;;;;;;;1.05;81.28;100758.28;1746746;82;21475;-69
2021/12/14 01:40:29;;;;;;;20.25;15.55;;;;;;;1.05;81.28;100755.67;1724657;82;21032;-68
2021/12/14 01:42:47;;;;;;;21.37;15.88;;;;;;;1.06;81.36;100756.95;1720398;81;28928;-71
2021/12/14 01:45:18;;;;;;;19.65;14.80;;;;;;;1.09;81.37;100752.08;1722558;81;20992;-70
2021/12/14 01:47:52;;;;;;;18.37;13.85;;;;;;;1.09;81.36;100748.19;1718042;82;21025;-71
2021/12/14 01:50:56;;;;;;;20.85;15.28;;;;;;;1.08;81.34;100750.39;1710068;83;22251;-71
2021/12/14 01:53:25;;;;;;;20.23;14.93;;;;;;;1.04;81.26;100751.38;1710892;82;21000;-69
2021/12/14 01:55:56;;;;;;;22.25;15.63;;;;;;;1.02;81.35;100750.13;1748072;82;21028;-68
2021/12/14 01:58:28;;;;;;;20.32;14.60;;;;;;;1.02;81.35;100751.44;1718763;82;21051;-68
2021/12/14 02:01:00;;;;;;;18.95;13.70;;;;;;;1.02;81.35;100745.38;1715432;81;21087;-69
2021/12/14 02:03:35;;;;;;;17.35;13.05;;;;;;;1.02;81.36;100741.48;1737204;81;21836;-69
2021/12/14 02:06:03;;;;;;;18.07;12.98;;;;;;;1.00;81.34;100752.40;1730269;82;21012;-69
2021/12/14 02:08:33;;;;;;;16.62;12.95;;;;;;;0.96;81.29;100748.18;1777596;78;21078;-69
2021/12/14 02:11:02;;;;;;;16.42;12.80;;;;;;;0.95;81.36;100748.63;1763207;78;20974;-70
2021/12/14 02:13:42;;;;;;;19.15;13.43;;;;;;;0.96;81.35;100748.18;1785602;80;20932;-69
2021/12/14 02:16:15;;;;;;;20.40;15.25;;;;;;;0.95;81.38;100743.88;1799572;78;21852;-68
2021/12/14 02:18:51;;;;;;;21.52;16.40;;;;;;;0.91;81.33;100748.80;1766479;78;21055;-70
2021/12/14 02:21:19;;;;;;;18.95;15.08;;;;;;;0.92;81.40;100744.84;1789609;78;21052;-69
2021/12/14 02:23:50;;;;;;;21.40;15.88;;;;;;;0.92;81.39;100739.64;1782170;80;20960;-69
2021/12/14 02:26:21;;;;;;;19.00;15.85;;;;;;;0.93;81.43;100741.80;1758542;78;21432;-69
2021/12/14 02:28:49;;;;;;;;;;;;;;;0.94;81.43;100743.48;1810961;78;22232;-68
2021/12/14 02:31:19;;;;;;;21.33;14.40;;;;;;;0.89;81.38;100748.86;1819963;78;20757;-69
2021/12/14 02:33:48;;;;;;;19.95;14.50;;;;;;;0.84;81.39;100743.80;1760542;78;21471;-69
2021/12/14 02:36:29;;;;;;;19.17;15.05;;;;;;;0.83;81.45;100747.75;1778062;78;21031;-69
2021/12/14 02:39:09;;;;;;;20.60;16.80;;;;;;;0.85;81.52;100754.59;1786276;78;21400;-69
2021/12/14 02:41:47;;;;;;;21.12;17.12;;;;;;;0.89;81.56;100751.91;1779392;80;21863;-69
2021/12/14 02:44:16;;;;;;;22.95;17.98;;;;;;;0.90;81.57;100753.61;1797632;78;21035;-70
2021/12/14 02:46:51;;;;;;;23.05;17.92;;;;;;;0.92;81.58;100756.55;1786493;78;21052;-70
2021/12/14 02:49:19;;;;;;;;;;;;;;;0.93;81.50;100760.84;1788115;80;21001;-69
2021/12/14 02:51:53;;;;;;;23.85;17.35;;;;;;;0.96;81.51;100761.19;1796990;78;20134;-69
2021/12/14 02:54:24;;;;;;;20.72;16.57;;;;;;;0.95;81.55;100765.54;1814689;78;22417;-69
2021/12/14 02:56:59;;;;;;;20.37;15.95;;;;;;;0.99;81.59;100765.00;1776319;78;21004;-72
2021/12/14 02:59:31;;;;;;;21.73;17.35;;;;;;;0.99;81.57;100767.16;1787779;80;21400;-71
2021/12/14 03:02:04;;;;;;;22.82;17.62;;;;;;;0.98;81.56;100770.66;1805632;78;21335;-70
2021/12/14 03:04:28;;;;;;;21.30;16.17;;;;;;;0.99;81.59;100771.51;1792380;79;21003;-71
2021/12/14 03:06:57;;;;;;;24.45;18.70;;;;;;;0.99;81.56;100775.41;1815876;79;22173;-69
2021/12/14 03:10:07;;;;;;;24.32;18.67;;;;;;;0.94;81.48;100776.84;1796431;79;20930;-70
2021/12/14 03:12:34;;;;;;;27.58;20.57;;;;;;;0.89;81.44;100776.17;1779983;79;21040;-69
2021/12/14 03:15:10;;;;;;;27.60;21.45;;;;;;;0.89;81.53;100774.87;1774799;79;21031;-69
2021/12/14 03:17:37;;;;;;;23.85;18.35;;;;;;;0.92;81.59;100782.56;1749295;80;21619;-70
2021/12/14 03:20:19;;;;;;;25.70;21.07;;;;;;;0.91;81.61;100773.52;1786478;78;21809;-70
2021/12/14 03:23:02;;;;;;;28.67;22.82;;;;;;;0.89;81.57;100770.97;1766910;79;21416;-69
2021/12/14 03:25:29;;;;;;;21.10;16.00;;;;;;;0.86;81.56;100783.59;1811683;79;21486;-70
2021/12/14 03:27:58;;;;;;;27.52;20.60;;;;;;;0.86;81.61;100783.59;1776370;79;21005;-71
2021/12/14 03:30:45;;;;;;;25.35;18.50;;;;;;;0.85;81.63;100783.20;1780618;79;21051;-70
2021/12/14 03:33:24;;;;;;;26.68;19.75;;;;;;;0.88;81.67;100780.97;1768217;78;21776;-69
2021/12/14 03:36:02;;;;;;;27.42;19.57;;;;;;;0.89;81.68;100783.97;1790122;79;20983;-69
2021/12/14 03:38:43;;;;;;;24.23;17.95;;;;;;;0.94;81.69;100784.65;1815062;79;21020;-69
2021/12/14 03:41:17;;;;;;;27.48;18.48;;;;;;;0.94;81.63;100787.70;1767488;79;21401;-69
2021/12/14 03:43:52;;;;;;;25.97;16.93;;;;;;;0.93;81.63;100782.11;1785722;79;20992;-69
2021/12/14 03:46:21;;;;;;;25.55;17.75;;;;;;;0.96;81.60;100791.09;1778646;80;22191;-70
2021/12/14 03:48:47;;;;;;;26.20;18.37;;;;;;;0.95;81.57;100792.00;1786827;78;21470;-69
2021/12/14 03:51:20;;;;;;;28.98;19.40;;;;;;;0.94;81.62;100788.55;1782907;79;21012;-69
2021/12/14 03:53:53;;;;;;;26.37;20.23;;;;;;;0.97;81.62;100794.13;1768722;81;21046;-69
2021/12/14 03:56:20;;;;;;;27.32;19.32;;;;;;;0.99;81.61;100789.72;1772349;79;20931;-69
2021/12/14 03:58:46;;;;;;;26.77;18.42;;;;;;;1.02;81.60;100789.60;1780948;79;21679;-69
2021/12/14 04:01:22;;;;;;;28.55;17.57;;;;;;;1.03;81.63;100792.60;1786820;79;21005;-69
2021/12/14 04:03:56;;;;;;;26.68;18.23;;;;;;;1.06;81.63;100798.98;1783115;79;20957;-71
2021/12/14 04:06:25;;;;;;;27.87;18.90;;;;;;;1.07;81.63;100802.87;1804426;79;21008;-70
2021/12/14 04:08:51;;;;;;;25.02;19.05;;;;;;;1.08;81.65;100798.52;1816931;79;21024;-69
2021/12/14 04:11:18;;;;;;;29.15;19.67;;;;;;;1.10;81.64;100795.41;1778843;79;22190;-69
2021/12/14 04:13:49;;;;;;;26.17;17.62;;;;;;;1.10;81.62;100800.16;1787092;79;20989;-69
2021/12/14 04:16:20;;;;;;;25.30;17.20;;;;;;;1.08;81.62;100795.45;1782839;79;21415;-68
2021/12/14 04:18:48;;;;;;;28.27;18.10;;;;;;;1.09;81.60;100803.66;1756030;80;21404;-69
2021/12/14 04:21:16;;;;;;;25.95;18.32;;;;;;;1.06;81.53;100804.19;1781815;80;20976;-69
2021/12/14 04:23:48;;;;;;;27.70;19.20;;;;;;;1.05;81.52;100811.60;1757963;79;23325;-69
2021/12/14 04:26:15;;;;;;;26.77;18.25;;;;;;;1.04;81.55;100808.60;1811022;79;21003;-69
2021/12/14 04:28:48;;;;;;;36.00;25.43;;;;;;;1.04;81.54;100805.55;1766244;79;21008;-70
2021/12/14 04:31:16;;;;;;;26.48;17.85;;;;;;;1.05;81.54;100803.34;1777563;79;21394;-70
2021/12/14 04:33:46;;;;;;;25.80;18.12;;;;;;;1.03;81.48;100799.95;1779868;79;21482;-70
2021/12/14 04:36:19;;;;;;;25.05;17.30;;;;;;;1.01;81.43;100799.61;1799095;79;21837;-69
2021/12/14 04:38:57;;;;;;;25.30;18.27;;;;;;;0.99;81.43;100804.87;1789325;79;21046;-69
2021/12/14 04:52:27;;;;;;;25.37;17.30;;;;;;;1.00;81.59;100809.16;1780619;79;21026;-69
2021/12/14 04:55:00;;;;;;;27.22;18.23;;;;;;;1.02;81.58;100803.45;1768073;79;21004;-71
2021/12/14 04:57:31;;;;;;;25.25;18.00;;;;;;;1.01;81.56;100803.52;1775400;79;27444;-72
2021/12/14 05:00:28;;;;;;;25.68;16.25;;;;;;;1.02;81.61;100809.96;1763583;79;20996;-68
2021/12/14 05:03:00;;;;;;;25.72;17.75;;;;;;;1.02;81.59;100806.06;1751132;78;21812;-70
2021/12/14 05:05:39;;;;;;;26.35;18.27;;;;;;;1.02;81.61;100812.56;1766555;79;20989;-71
2021/12/14 05:10:39;;;;;;;23.75;16.67;;;;;;;1.04;81.63;100812.50;1735045;81;20960;-73
2021/12/14 05:13:05;;;;;;;22.67;16.77;;;;;;;1.04;81.65;100809.91;1722975;83;20993;-70
2021/12/14 05:15:39;;;;;;;24.25;16.70;;;;;;;1.04;81.65;100809.45;1690728;82;21836;-71
2021/12/14 05:18:14;;;;;;;25.92;17.70;;;;;;;1.03;81.66;100801.25;1746527;81;21174;-71
2021/12/14 05:20:46;;;;;;;27.58;18.27;;;;;;;1.03;81.70;100807.75;1737569;81;20964;-72
2021/12/14 05:23:27;;;;;;;21.45;15.88;;;;;;;1.04;81.73;100802.09;1756744;81;21008;-71
2021/12/14 05:25:56;;;;;;;21.87;16.60;;;;;;;1.06;81.70;100804.19;1740741;81;21040;-71
2021/12/14 05:28:24;;;;;;;25.43;17.65;;;;;;;1.03;81.67;100806.45;1729323;81;22224;-69
2021/12/14 05:30:54;;;;;;;21.42;14.95;;;;;;;1.03;81.66;100810.80;1747367;81;21039;-71
2021/12/14 05:33:29;;;;;;;24.72;17.55;;;;;;;1.03;81.67;100815.56;1713793;81;21059;-73
2021/12/14 05:36:04;;;;;;;24.20;18.02;;;;;;;1.01;81.68;100806.96;1731752;82;21379;-72
2021/12/14 05:43:06;;;;;;;23.52;16.87;;;;;;;1.04;81.72;100817.70;1704393;81;21832;-72
2021/12/14 05:43:39;;;;;;;24.32;17.62;;;;;;;1.05;81.73;100819.41;1752092;79;20936;-71
2021/12/14 05:46:21;;;;;;;24.87;17.90;;;;;;;1.04;81.76;100823.76;1723232;81;21028;-67
2021/12/14 05:49:02;;;;;;;23.30;17.48;;;;;;;1.06;81.79;100827.61;1695265;82;20989;-69
2021/12/14 05:51:32;;;;;;;23.27;18.12;;;;;;;1.06;81.80;100831.50;1724109;82;22074;-68
2021/12/14 05:53:59;;;;;;;26.55;18.87;;;;;;;1.08;81.83;100826.67;1717988;81;21833;-69
2021/12/14 05:56:27;;;;;;;28.12;20.65;;;;;;;1.10;81.79;100826.63;1770518;79;20977;-68
2021/12/14 05:58:54;;;;;;;27.10;19.73;;;;;;;1.08;81.75;100830.58;1749667;79;20985;-67
2021/12/14 06:01:25;;;;;;;24.90;17.55;;;;;;;1.09;81.79;100831.42;1768266;79;20953;-68
2021/12/14 06:03:59;;;;;;;24.32;17.48;;;;;;;1.10;81.79;100825.32;1776044;79;21080;-68
2021/12/14 06:06:42;;;;;;;28.73;18.95;;;;;;;1.08;81.75;100830.58;1774435;79;21822;-67
2021/12/14 06:09:16;;;;;;;24.90;17.67;;;;;;;1.08;81.78;100829.28;1815583;79;20944;-68
2021/12/14 06:11:47;;;;;;;25.65;19.02;;;;;;;1.11;81.84;100834.82;1764589;79;21516;-67
2021/12/14 06:14:17;;;;;;;30.00;21.07;;;;;;;1.11;81.82;100834.82;1766280;79;21013;-67
2021/12/14 06:16:46;;;;;;;27.13;19.00;;;;;;;1.13;81.79;100836.47;1750267;80;21031;-66
2021/12/14 06:19:22;;;;;;;26.05;18.87;;;;;;;1.13;81.82;100829.11;1780739;79;21801;-67
2021/12/14 06:22:07;;;;;;;26.68;18.50;;;;;;;1.14;81.84;100830.81;1801211;79;20929;-67
2021/12/14 06:24:36;;;;;;;27.15;19.42;;;;;;;1.14;81.83;100837.31;1797779;79;20970;-66
2021/12/14 06:27:07;;;;;;;25.00;18.25;;;;;;;1.13;81.79;100836.91;1760479;79;21498;-67
2021/12/14 06:29:45;;;;;;;23.18;17.73;;;;;;;1.11;81.83;100835.67;1742561;80;21143;-67
2021/12/14 06:32:20;;;;;;;26.27;17.92;;;;;;;1.12;81.78;100841.72;1779778;79;21782;-67
2021/12/14 06:34:52;;;;;;;27.98;19.30;;;;;;;1.09;81.73;100844.44;1781008;80;21040;-66
2021/12/14 06:40:26;;;;;;;24.82;17.85;;;;;;;1.05;81.76;100848.87;1780098;79;20956;-67
2021/12/14 06:42:57;;;;;;;29.12;19.50;;;;;;;1.07;81.82;100847.09;1803238;79;21062;-67
2021/12/14 06:45:34;;;;;;;27.48;19.37;;;;;;;1.06;81.85;100848.00;1792305;79;21865;-68
2021/12/14 06:48:13;;;;;;;27.22;19.30;;;;;;;1.08;81.89;100855.30;1779106;80;21415;-67
2021/12/14 06:51:01;;;;;;;27.87;19.10;;;;;;;1.10;81.91;100858.69;1748722;79;20988;-65
2021/12/14 06:53:31;;;;;;;25.35;18.05;;;;;;;1.11;81.86;100855.63;1762999;79;21511;-66
2021/12/14 06:56:09;;;;;;;28.47;19.75;;;;;;;1.12;81.84;100854.28;1767094;80;21004;-69
2021/12/14 06:59:04;;;;;;;27.07;19.62;;;;;;;1.09;81.78;100854.39;1781367;79;21772;-69
2021/12/14 07:01:49;;;;;;;31.37;19.65;;;;;;;1.10;81.84;100854.78;1710547;81;21436;-69
2021/12/14 07:04:20;;;;;;;26.62;18.12;;;;;;;1.10;81.87;100857.39;1784840;79;20999;-69
2021/12/14 07:06:50;;;;;;;28.55;19.23;;;;;;;1.13;81.92;100862.48;1738583;81;21501;-68
2021/12/14 07:09:30;;;;;;;28.02;19.15;;;;;;;1.13;81.84;100862.48;1720130;82;20946;-69
2021/12/14 07:12:12;;;;;;;32.58;22.90;;;;;;;1.13;81.87;100866.38;1715158;83;21799;-68
2021/12/14 07:14:57;;;;;;;26.48;17.65;;;;;;;1.15;81.88;100869.78;1732062;80;20958;-70
2021/12/14 07:17:31;;;;;;;27.77;18.92;;;;;;;1.15;81.83;100870.23;1717502;81;21009;-70
2021/12/14 07:20:02;;;;;;;26.70;18.05;;;;;;;1.10;81.77;100873.00;1718011;81;20974;-70
2021/12/14 07:22:43;;;;;;;26.73;18.65;;;;;;;1.09;81.73;100874.35;1717568;83;20993;-72
2021/12/14 07:25:29;;;;;;;28.67;17.85;;;;;;;1.04;81.72;100872.33;1765436;80;21780;-71
2021/12/14 07:28:07;;;;;;;28.40;19.52;;;;;;;1.04;81.82;100870.58;1731485;82;21013;-72
2021/12/14 07:30:48;;;;;;;28.45;17.87;;;;;;;1.04;81.79;100874.94;1737694;82;20997;-72
2021/12/14 07:33:24;;;;;;;27.93;18.23;;;;;;;1.05;81.84;100873.58;1743966;82;20992;-72
2021/12/14 07:36:10;;;;;;;29.72;19.98;;;;;;;1.05;81.81;100878.78;1750130;80;21020;-69
2021/12/14 07:38:58;;;;;;;28.32;18.32;;;;;;;1.04;81.88;100880.98;1725073;81;22424;-69
2021/12/14 07:41:35;;;;;;;26.52;18.87;;;;;;;1.06;81.87;100880.93;1729376;81;21474;-69
2021/12/14 07:44:15;;;;;;;29.25;18.70;;;;;;;1.04;81.86;100883.59;1718117;82;21018;-70
2021/12/14 07:46:54;;;;;;;29.65;18.45;;;;;;;1.03;81.87;100888.39;1740829;82;21029;-70
2021/12/14 07:49:38;;;;;;;25.27;17.02;;;;;;;1.03;81.92;100892.30;1728764;82;21000;-71
2021/12/14 07:52:16;;;;;;;28.50;18.42;;;;;;;1.06;81.95;100890.92;1718926;83;21853;-70
2021/12/14 07:54:47;;;;;;;32.17;19.77;;;;;;;1.05;81.97;100885.73;1717113;81;21061;-71
2021/12/14 07:57:20;;;;;;;166.28;32.48;;;;;;;1.08;82.00;100894.77;1748812;80;21051;-70
2021/12/14 08:00:00;;;;;;;37.80;19.55;;;;;;;1.07;81.97;100893.92;1739314;81;21025;-69
2021/12/14 08:02:34;;;;;;;28.10;18.35;;;;;;;1.06;81.86;100896.54;1730552;81;20969;-69
2021/12/14 08:05:27;;;;;;;27.70;18.92;;;;;;;1.01;81.86;100898.00;1737999;81;21835;-69
2021/12/14 08:08:09;;;;;;;26.87;18.20;;;;;;;1.03;81.94;100889.69;1763672;80;20988;-69
2021/12/14 08:10:38;;;;;;;27.35;17.48;;;;;;;1.06;82.04;100880.52;1771365;79;21547;-70
2021/12/14 08:13:16;;;;;;;28.00;17.82;;;;;;;1.07;82.05;100883.52;1781662;79;21032;-69
2021/12/14 08:15:51;;;;;;;26.37;17.57;;;;;;;1.07;82.02;100879.61;1786135;78;21039;-69
2021/12/14 08:18:23;;;;;;;24.52;16.82;;;;;;;1.07;82.02;100879.61;1797970;79;21835;-70
2021/12/14 08:20:58;;;;;;;26.07;17.77;;;;;;;1.07;82.03;100878.30;1776581;79;20945;-69
2021/12/14 08:23:29;;;;;;;26.90;18.15;;;;;;;1.06;82.04;100872.70;1762857;80;21004;-72
2021/12/14 08:26:16;;;;;;;29.45;19.65;;;;;;;1.10;82.09;100870.84;1777284;80;20996;-68
2021/12/14 08:29:01;;;;;;;28.32;18.42;;;;;;;1.12;82.11;100871.19;1764952;79;21466;-69
2021/12/14 08:31:39;;;;;;;25.77;17.42;;;;;;;1.16;82.17;100877.16;1749632;79;21855;-69
2021/12/14 08:34:09;;;;;;;29.55;18.02;;;;;;;1.19;82.13;100882.70;1769472;79;20971;-70
2021/12/14 08:36:49;;;;;;;31.07;19.77;;;;;;;1.17;82.10;100882.77;1773385;79;20976;-70
2021/12/14 08:39:26;;;;;;;30.35;18.73;;;;;;;1.18;82.12;100881.86;1789749;79;20973;-70
2021/12/14 08:42:07;;;;;;;30.10;20.05;;;;;;;1.21;82.21;100882.20;1783188;79;21005;-68
2021/12/14 08:44:39;;;;;;;27.93;18.37;;;;;;;1.26;82.22;100880.31;1766401;79;21862;-69
2021/12/14 08:47:12;;;;;;;24.67;16.57;;;;;;;1.27;82.19;100872.45;1771656;79;20913;-67
2021/12/14 08:49:40;;;;;;;25.70;17.65;;;;;;;1.29;82.16;100869.80;1807132;79;20941;-68
2021/12/14 08:52:08;;;;;;;26.25;16.93;;;;;;;1.27;82.09;100868.55;1786208;79;20980;-68
2021/12/14 08:54:35;;;;;;;26.48;17.82;;;;;;;1.27;82.12;100869.84;1772283;79;21023;-68
2021/12/14 08:57:13;;;;;;;22.98;15.93;;;;;;;1.28;82.14;100875.91;1777970;80;22628;-67
2021/12/14 08:59:43;;;;;;;25.40;16.85;;;;;;;1.27;82.13;100873.75;1786211;79;21090;-69
2021/12/14 09:02:12;;;;;;;22.87;16.65;;;;;;;1.28;82.16;100874.60;1768844;79;21141;-68
2021/12/14 09:04:54;;;;;;;178.12;31.77;;;;;;;1.30;82.18;100873.64;1753909;80;20980;-71
2021/12/14 09:07:26;;;;;;;74.05;19.80;;;;;;;1.32;82.14;100868.38;1771133;80;21075;-69
2021/12/14 09:09:53;;;;;;;36.93;16.95;;;;;;;1.33;82.11;100872.68;1772857;80;21762;-70
2021/12/14 09:12:27;;;;;;;34.20;16.32;;;;;;;1.32;82.08;100873.59;1763253;80;20936;-70
2021/12/14 09:14:57;;;;;;;23.52;15.28;;;;;;;1.31;82.09;100869.28;1751395;80;20991;-71
2021/12/14 09:17:26;;;;;;;25.17;16.02;;;;;;;1.32;82.08;100871.83;1746142;81;20973;-71
2021/12/14 09:20:06;;;;;;;27.87;17.65;;;;;;;1.32;82.06;100869.23;1746202;81;21046;-71
2021/12/14 09:22:38;;;;;;;26.77;16.87;;;;;;;1.34;82.07;100878.28;1744062;80;21773;-70
2021/12/14 09:25:07;;;;;;;23.98;15.90;;;;;;;1.33;82.05;100872.68;1758459;80;21492;-71
2021/12/14 09:27:33;;;;;;;25.57;15.50;;;;;;;1.36;82.09;100873.45;1750858;80;21394;-71
2021/12/14 09:30:00;;;;;;;23.15;15.05;;;;;;;1.35;82.05;100872.17;1753433;80;21490;-69
2021/12/14 09:32:28;;;;;;;24.07;15.08;;;;;;;1.33;82.02;100870.08;1782310;80;21023;-70
2021/12/14 09:34:58;;;;;;;25.57;15.93;;;;;;;1.32;82.08;100877.03;1782563;80;22511;-69
2021/12/14 09:37:26;;;;;;;22.73;15.63;;;;;;;1.35;82.08;100869.57;1747155;80;21092;-71
2021/12/14 09:39:57;;;;;;;24.57;16.02;;;;;;;1.36;82.10;100870.84;1767451;81;21098;-72
2021/12/14 09:42:27;;;;;;;23.15;15.35;;;;;;;1.39;82.09;100879.00;1755025;80;21054;-72
2021/12/14 09:44:57;;;;;;;23.75;15.90;;;;;;;1.37;82.02;100870.39;1747009;80;20994;-71
2021/12/14 09:47:26;;;;;;;20.85;14.85;;;;;;;1.39;82.06;100875.09;1741963;81;21752;-74
2021/12/14 09:49:54;;;;;;;23.50;14.95;;;;;;;1.39;82.00;100876.39;1753449;80;21031;-73
2021/12/14 09:52:28;;;;;;;20.37;14.68;;;;;;;1.35;81.92;100873.47;1755818;80;21015;-72
2021/12/14 09:54:55;;;;;;;21.82;14.50;;;;;;;1.33;81.96;100872.23;1751582;80;21023;-71
2021/12/14 09:57:32;;;;;;;21.37;13.70;;;;;;;1.31;81.91;100867.53;1752557;80;20995;-70
2021/12/14 10:00:02;;;;;;;21.52;13.85;;;;;;;1.30;81.87;100872.80;1721316;83;22440;-69
2021/12/14 10:02:36;;;;;;;22.17;14.65;;;;;;;1.27;81.92;100869.00;1750121;81;21042;-72
2021/12/14 10:05:13;;;;;;;25.55;16.90;;;;;;;1.25;81.93;100865.58;1751923;79;21036;-71
2021/12/14 10:07:41;;;;;;;23.80;15.28;;;;;;;1.27;81.99;100865.09;1767061;79;21015;-71
2021/12/14 10:10:11;;;;;;;22.87;15.23;;;;;;;1.28;82.02;100862.44;1757054;80;21036;-69
2021/12/14 10:12:51;;;;;;;24.47;14.98;;;;;;;1.29;82.10;100858.09;1769878;80;21882;-69
2021/12/14 10:15:32;;;;;;;21.30;14.35;;;;;;;1.32;82.14;100854.06;1781744;79;40533;-70
2021/12/14 10:18:06;;;;;;;23.35;14.40;;;;;;;1.36;82.13;100862.19;1770636;79;21083;-69
2021/12/14 10:20:47;;;;;;;20.15;13.20;;;;;;;1.38;82.15;100849.52;1800841;79;21020;-71
2021/12/14 10:23:14;;;;;;;20.02;13.62;;;;;;;1.39;82.05;100847.77;1778879;79;21044;-73
2021/12/14 10:25:41;;;;;;;21.40;14.55;;;;;;;1.39;82.09;100851.66;1795845;79;21798;-72
2021/12/14 10:28:08;;;;;;;21.60;14.35;;;;;;;1.39;82.11;100851.22;1759708;79;21055;-73
2021/12/14 10:30:56;;;;;;;20.17;12.95;;;;;;;1.41;82.17;100851.16;1767450;80;21076;-71
2021/12/14 10:33:23;;;;;;;15.88;10.82;;;;;;;1.44;82.17;100849.29;1773030;79;21001;-70
2021/12/14 10:35:54;;;;;;;18.12;11.25;;;;;;;1.44;82.14;100841.48;1774426;79;21047;-69
2021/12/14 10:38:34;;;;;;;20.32;12.55;;;;;;;1.43;82.05;100843.69;1738858;81;21822;-73
2021/12/14 10:43:57;;;;;;;18.67;12.55;;;;;;;1.43;82.07;100833.73;1726652;81;21066;-72
2021/12/14 10:46:33;;;;;;;15.43;11.43;;;;;;;1.40;81.98;100827.34;1726051;83;21469;-72
2021/12/14 10:49:00;;;;;;;19.90;12.70;;;;;;;1.39;82.00;100826.94;1743756;80;21075;-73
2021/12/14 10:51:32;;;;;;;18.32;12.40;;;;;;;1.37;81.98;100817.89;1770702;79;22392;-71
2021/12/14 10:54:00;;;;;;;16.93;11.90;;;;;;;1.37;81.97;100819.64;1775631;80;21036;-71
2021/12/14 10:56:31;;;;;;;19.05;11.10;;;;;;;1.40;82.06;100811.27;1768567;79;20975;-70
2021/12/14 10:59:00;;;;;;;16.20;11.65;;;;;;;1.41;82.04;100805.16;1751594;79;21075;-72
2021/12/14 11:01:34;;;;;;;18.30;11.90;;;;;;;1.42;82.04;100804.25;1754247;79;21031;-71
2021/12/14 11:04:11;;;;;;;17.95;11.53;;;;;;;1.43;82.08;100802.04;1768198;79;21850;-71
2021/12/14 11:06:42;;;;;;;19.02;13.15;;;;;;;1.44;82.03;100798.98;1756020;80;20940;-70
2021/12/14 11:11:54;;;;;;;165.88;27.27;;;;;;;1.42;81.99;100791.69;1767521;80;20953;-70
2021/12/14 11:14:26;;;;;;;74.87;17.37;;;;;;;1.41;81.94;100789.99;1785786;80;20941;-70
2021/12/14 11:19:58;;;;;;;18.52;12.35;;;;;;;1.32;81.79;100781.20;1754077;79;21025;-70
2021/12/14 11:22:39;;;;;;;19.20;12.10;;;;;;;1.29;81.81;100786.07;1752932;80;21022;-70
2021/12/14 11:25:17;;;;;;;16.27;10.85;;;;;;;1.31;81.88;100779.05;1767578;80;21020;-71
2021/12/14 11:27:48;;;;;;;17.65;10.90;;;;;;;1.31;81.91;100780.80;1756753;79;21050;-71
2021/12/14 11:30:22;;;;;;;17.92;12.47;;;;;;;1.30;81.88;100786.47;1790855;79;21841;-71
2021/12/14 11:33:13;;;;;;;19.40;12.07;;;;;;;1.25;81.83;100793.56;1797577;79;21027;-70
2021/12/14 11:36:01;;;;;;;21.65;12.95;;;;;;;1.28;81.94;100798.69;1773345;79;21455;-71
2021/12/14 11:38:42;;;;;;;19.60;12.13;;;;;;;1.26;81.93;100800.95;1790440;79;20976;-72
2021/12/14 11:41:49;;;;;;;17.62;12.40;;;;;;;1.24;81.93;100798.38;1764034;80;20954;-72
2021/12/14 11:44:36;;;;;;;19.00;12.88;;;;;;;1.23;81.92;100794.08;1769768;80;21821;-71
2021/12/14 11:47:11;;;;;;;22.45;13.65;;;;;;;1.23;81.99;100794.08;1777576;80;21000;-72
2021/12/14 11:49:49;;;;;;;18.55;11.95;;;;;;;1.25;81.95;100797.92;1774781;80;20988;-71
2021/12/14 11:52:41;;;;;;;20.05;12.47;;;;;;;1.25;81.94;100792.72;1769407;80;21032;-70
2021/12/14 11:55:34;;;;;;;22.50;13.68;;;;;;;1.25;81.97;100796.63;1761508;79;20977;-69
2021/12/14 11:58:33;;;;;;;27.07;15.18;;;;;;;1.26;81.98;100800.95;1788023;80;22451;-73
2021/12/14 12:01:22;;;;;;;22.98;14.05;;;;;;;1.29;82.04;100803.44;1785966;80;21415;-71
2021/12/14 12:04:11;;;;;;;20.92;12.80;;;;;;;1.28;81.99;100802.59;1766954;80;21001;-69
2021/12/14 12:09:45;;;;;;;23.47;15.38;;;;;;;1.28;82.02;100809.09;1755260;81;21043;-70
2021/12/14 12:12:28;;;;;;;19.90;13.60;;;;;;;1.30;82.02;100809.88;1756153;81;21103;-71
2021/12/14 12:15:18;;;;;;;24.85;14.87;;;;;;;1.34;82.04;100811.92;1754524;81;21038;-69
2021/12/14 12:17:59;;;;;;;22.25;15.63;;;;;;;1.35;82.05;100813.19;1755251;81;20989;-70
2021/12/14 12:20:45;;;;;;;24.07;14.45;;;;;;;1.34;81.96;100817.97;1754779;81;20990;-69
2021/12/14 12:23:18;;;;;;;24.35;15.08;;;;;;;1.34;81.99;100825.78;1754071;81;20982;-74
2021/12/14 12:25:53;;;;;;;27.65;16.60;;;;;;;1.36;81.97;100824.45;1755280;80;21813;-72